Time;durP1;ratioP1;P1;durP2;ratioP2;P2;SDS_P1;SDS_P2;PMS_P1;PMS_P2;Temp;Humidity;BMP_temperature;BMP_pressure;BME280_temperature;BME280_humidity;BME280_pressure;Samples;Min_cycle;Max_cycle;Signal;HPM_P1;HPM_P2
2022/07/27 00:01:45;;;;;;;3.17;1.10;;;;;;;;;;4991801;28;20037;-67
2022/07/27 00:04:10;;;;;;;6.60;1.17;;;;;;;;;;4992087;28;20057;-67
2022/07/27 00:06:36;;;;;;;8.85;1.00;;;;;;;;;;4992862;28;20376;-68
2022/07/27 00:09:01;;;;;;;6.13;1.02;;;;;;;;;;4992478;28;20027;-68
2022/07/27 00:11:26;;;;;;;4.38;1.00;;;;;;;;;;4992489;28;20018;-68
2022/07/27 00:13:51;;;;;;;5.73;1.10;;;;;;;;;;4991220;28;20019;-68
2022/07/27 00:16:16;;;;;;;4.60;1.80;;;;;;;;;;4992615;28;20301;-68
2022/07/27 00:18:42;;;;;;;10.60;1.52;;;;;;;;;;4991639;28;20782;-68
2022/07/27 00:21:07;;;;;;;10.17;1.97;;;;;;;;;;4992500;28;20022;-68
2022/07/27 00:23:33;;;;;;;11.40;2.42;;;;;;;;;;4992730;28;20726;-67
2022/07/27 00:25:58;;;;;;;9.90;1.17;;;;;;;;;;4990101;28;20022;-68
2022/07/27 00:28:23;;;;;;;4.00;0.90;;;;;;;;;;4993029;28;20080;-68
2022/07/27 00:30:48;;;;;;;4.07;0.77;;;;;;;;;;4992330;28;20662;-67
2022/07/27 00:33:13;;;;;;;3.05;0.80;;;;;;;;;;4992821;28;20285;-68
2022/07/27 00:35:39;;;;;;;5.78;1.35;;;;;;;;;;4991832;28;20220;-67
2022/07/27 00:38:04;;;;;;;5.45;1.23;;;;;;;;;;4989965;28;20076;-68
2022/07/27 00:40:30;;;;;;;4.70;1.23;;;;;;;;;;4992484;28;20116;-68
2022/07/27 00:42:55;;;;;;;8.02;1.05;;;;;;;;;;4993071;28;20042;-68
2022/07/27 00:45:20;;;;;;;3.87;1.00;;;;;;;;;;4990386;28;20046;-68
2022/07/27 00:47:46;;;;;;;8.18;1.45;;;;;;;;;;4991410;28;20277;-68
2022/07/27 00:50:11;;;;;;;6.13;1.83;;;;;;;;;;4991048;28;20034;-67
2022/07/27 00:52:37;;;;;;;4.97;1.27;;;;;;;;;;4988553;28;20777;-68
2022/07/27 00:55:02;;;;;;;10.52;1.35;;;;;;;;;;4989479;28;20026;-68
2022/07/27 00:57:28;;;;;;;7.38;1.95;;;;;;;;;;4992741;28;20040;-67
2022/07/27 00:59:53;;;;;;;6.05;1.13;;;;;;;;;;4992049;28;20038;-68
2022/07/27 01:02:19;;;;;;;12.45;1.50;;;;;;;;;;4989964;28;20038;-68
2022/07/27 01:04:44;;;;;;;5.60;1.20;;;;;;;;;;4991431;28;20387;-68
2022/07/27 01:07:09;;;;;;;4.55;1.42;;;;;;;;;;4990320;28;20026;-68
2022/07/27 01:12:20;;;;;;;5.75;1.15;;;;;;;;;;4988634;28;20168;-67
2022/07/27 01:14:45;;;;;;;8.10;1.33;;;;;;;;;;4990981;28;20109;-68
2022/07/27 01:17:10;;;;;;;12.40;1.42;;;;;;;;;;4990358;28;20501;-68
2022/07/27 01:19:37;;;;;;;6.67;1.53;;;;;;;;;;4991313;28;20062;-68
2022/07/27 01:22:03;;;;;;;4.00;1.30;;;;;;;;;;4986888;28;20754;-68
2022/07/27 01:24:28;;;;;;;11.48;1.52;;;;;;;;;;4991374;28;20044;-68
2022/07/27 01:26:53;;;;;;;10.20;1.33;;;;;;;;;;4991449;28;20046;-67
2022/07/27 01:29:18;;;;;;;4.13;1.00;;;;;;;;;;4991957;28;20030;-68
2022/07/27 01:31:43;;;;;;;4.07;1.00;;;;;;;;;;4991843;28;20033;-68
2022/07/27 01:34:09;;;;;;;4.60;1.10;;;;;;;;;;4990835;28;20359;-67
2022/07/27 01:36:34;;;;;;;5.70;1.33;;;;;;;;;;4989725;28;20352;-67
2022/07/27 01:38:59;;;;;;;8.02;1.38;;;;;;;;;;4990378;28;20097;-68
2022/07/27 01:41:24;;;;;;;7.55;1.00;;;;;;;;;;4988863;28;20089;-67
2022/07/27 01:43:50;;;;;;;9.00;1.67;;;;;;;;;;4990939;28;20070;-67
2022/07/27 01:46:15;;;;;;;8.20;1.17;;;;;;;;;;4990322;28;20274;-67
2022/07/27 01:48:40;;;;;;;7.28;1.13;;;;;;;;;;4990466;28;20073;-68
2022/07/27 01:51:05;;;;;;;4.35;1.20;;;;;;;;;;4990258;28;20030;-67
2022/07/27 01:53:30;;;;;;;7.80;1.20;;;;;;;;;;4989893;28;20027;-68
2022/07/27 01:55:56;;;;;;;9.00;1.73;;;;;;;;;;4990542;28;20105;-67
2022/07/27 01:58:21;;;;;;;6.57;1.40;;;;;;;;;;4987881;28;20293;-67
2022/07/27 02:00:47;;;;;;;11.27;1.70;;;;;;;;;;4988132;28;20269;-67
2022/07/27 02:03:12;;;;;;;5.00;1.30;;;;;;;;;;4990390;28;20729;-67
2022/07/27 02:05:38;;;;;;;7.93;1.33;;;;;;;;;;4990019;28;20022;-68
2022/07/27 02:08:04;;;;;;;7.97;1.40;;;;;;;;;;4991040;28;20432;-67
2022/07/27 02:10:29;;;;;;;10.38;1.45;;;;;;;;;;4987898;28;20033;-67
2022/07/27 02:12:54;;;;;;;7.85;1.45;;;;;;;;;;4989225;28;20026;-67
2022/07/27 02:15:21;;;;;;;7.83;1.13;;;;;;;;;;4990968;28;20021;-67
2022/07/27 02:17:46;;;;;;;7.78;1.15;;;;;;;;;;4988477;28;20265;-68
2022/07/27 02:20:13;;;;;;;5.50;1.00;;;;;;;;;;4989730;28;20502;-67
2022/07/27 02:22:38;;;;;;;8.38;1.23;;;;;;;;;;4989616;28;20536;-68
2022/07/27 02:25:04;;;;;;;5.80;1.10;;;;;;;;;;4989861;28;20030;-67
2022/07/27 02:27:29;;;;;;;8.88;1.77;;;;;;;;;;4989463;28;20025;-67
2022/07/27 02:29:55;;;;;;;8.38;1.27;;;;;;;;;;4990420;28;20128;-67
2022/07/27 02:32:20;;;;;;;6.05;1.20;;;;;;;;;;4989305;28;20107;-68
2022/07/27 02:34:46;;;;;;;7.68;1.20;;;;;;;;;;4989295;28;20152;-67
2022/07/27 02:37:11;;;;;;;4.53;1.40;;;;;;;;;;4989959;28;20022;-68
2022/07/27 02:39:36;;;;;;;8.32;1.52;;;;;;;;;;4990423;28;20037;-67
2022/07/27 02:42:02;;;;;;;5.00;0.93;;;;;;;;;;4988966;28;20041;-67
2022/07/27 02:44:27;;;;;;;3.10;1.40;;;;;;;;;;4989866;28;20278;-67
2022/07/27 02:46:52;;;;;;;13.32;1.63;;;;;;;;;;4989308;28;20534;-68
2022/07/27 02:49:17;;;;;;;5.37;1.07;;;;;;;;;;4989601;28;20023;-68
2022/07/27 02:51:43;;;;;;;6.83;1.70;;;;;;;;;;4989320;28;20758;-67
2022/07/27 02:54:08;;;;;;;4.17;1.33;;;;;;;;;;4990013;28;20266;-67
2022/07/27 02:56:33;;;;;;;6.10;1.20;;;;;;;;;;4990533;28;20264;-68
2022/07/27 02:58:58;;;;;;;6.43;1.33;;;;;;;;;;4989388;28;20833;-67
2022/07/27 03:01:23;;;;;;;4.13;1.23;;;;;;;;;;4987454;28;20304;-67
2022/07/27 03:03:48;;;;;;;5.10;1.13;;;;;;;;;;4990733;28;20269;-67
2022/07/27 03:06:14;;;;;;;6.63;1.53;;;;;;;;;;4990180;28;20061;-67
2022/07/27 03:08:39;;;;;;;12.80;1.30;;;;;;;;;;4990483;28;20665;-67
2022/07/27 03:11:04;;;;;;;4.78;1.65;;;;;;;;;;4988140;28;20339;-68
2022/07/27 03:13:30;;;;;;;9.15;1.33;;;;;;;;;;4988785;28;20081;-67
2022/07/27 03:15:55;;;;;;;9.65;1.55;;;;;;;;;;4988553;28;20036;-67
2022/07/27 03:18:20;;;;;;;5.55;1.13;;;;;;;;;;4989618;28;20022;-68
2022/07/27 03:20:46;;;;;;;9.17;1.27;;;;;;;;;;4988910;28;20105;-67
2022/07/27 03:23:11;;;;;;;15.80;1.77;;;;;;;;;;4986853;28;20277;-67
2022/07/27 03:25:37;;;;;;;4.60;1.25;;;;;;;;;;4985269;28;20042;-68
2022/07/27 03:28:02;;;;;;;6.97;1.65;;;;;;;;;;4985138;28;20080;-67
2022/07/27 03:30:27;;;;;;;7.28;1.40;;;;;;;;;;4986748;28;20034;-67
2022/07/27 03:32:52;;;;;;;8.93;1.87;;;;;;;;;;4991634;28;20037;-67
2022/07/27 03:35:17;;;;;;;7.67;1.30;;;;;;;;;;4988850;28;20631;-67
2022/07/27 03:37:43;;;;;;;5.28;1.40;;;;;;;;;;4992336;28;20581;-67
2022/07/27 03:40:09;;;;;;;14.27;1.80;;;;;;;;;;4990922;28;20029;-68
2022/07/27 03:42:34;;;;;;;5.07;1.45;;;;;;;;;;4991811;28;20602;-68
2022/07/27 03:44:59;;;;;;;6.90;1.58;;;;;;;;;;4989903;28;20109;-68
2022/07/27 03:47:24;;;;;;;6.40;1.77;;;;;;;;;;4988486;28;20160;-67
2022/07/27 03:49:51;;;;;;;5.07;1.60;;;;;;;;;;4989677;28;20389;-68
2022/07/27 03:52:16;;;;;;;6.90;1.50;;;;;;;;;;4989177;28;20018;-67
2022/07/27 03:54:42;;;;;;;8.77;1.40;;;;;;;;;;4989263;28;20394;-67
2022/07/27 03:57:07;;;;;;;4.67;1.40;;;;;;;;;;4988773;28;20368;-67
2022/07/27 03:59:32;;;;;;;11.67;1.97;;;;;;;;;;4990057;28;20289;-67
2022/07/27 04:01:57;;;;;;;3.13;1.10;;;;;;;;;;4990056;28;20269;-67
2022/07/27 04:04:22;;;;;;;5.60;1.97;;;;;;;;;;4991120;28;20341;-67
2022/07/27 04:06:47;;;;;;;5.97;1.60;;;;;;;;;;4992298;28;20289;-67
2022/07/27 04:09:13;;;;;;;6.78;1.40;;;;;;;;;;4991149;28;20273;-67
2022/07/27 04:11:38;;;;;;;15.05;2.83;;;;;;;;;;4988010;28;20100;-68
2022/07/27 04:14:03;;;;;;;10.35;2.05;;;;;;;;;;4992359;28;20027;-67
2022/07/27 04:16:29;;;;;;;7.03;1.67;;;;;;;;;;4990937;28;20029;-67
2022/07/27 04:18:54;;;;;;;5.60;1.58;;;;;;;;;;4990475;28;20034;-67
2022/07/27 04:21:19;;;;;;;5.47;1.50;;;;;;;;;;4990836;28;20407;-67
2022/07/27 04:23:44;;;;;;;9.05;2.15;;;;;;;;;;4990580;28;20281;-68
2022/07/27 04:26:10;;;;;;;10.05;1.50;;;;;;;;;;4991081;28;20062;-68
2022/07/27 04:28:35;;;;;;;6.83;1.93;;;;;;;;;;4990929;28;20061;-67
2022/07/27 04:31:00;;;;;;;7.50;1.48;;;;;;;;;;4990978;28;20262;-66
2022/07/27 04:33:25;;;;;;;7.70;1.58;;;;;;;;;;4990503;28;20026;-66
2022/07/27 04:35:50;;;;;;;6.20;2.03;;;;;;;;;;4991702;28;20383;-67
2022/07/27 04:38:16;;;;;;;6.00;2.00;;;;;;;;;;4990573;28;20028;-66
2022/07/27 04:40:41;;;;;;;8.73;2.23;;;;;;;;;;4990594;28;20300;-67
2022/07/27 04:43:06;;;;;;;4.25;1.40;;;;;;;;;;4992645;28;20276;-66
2022/07/27 04:45:31;;;;;;;7.82;1.73;;;;;;;;;;4990289;28;20398;-66
2022/07/27 04:47:57;;;;;;;9.23;2.00;;;;;;;;;;4992506;28;20507;-66
2022/07/27 04:50:22;;;;;;;8.32;2.40;;;;;;;;;;4988572;28;20294;-66
2022/07/27 04:52:47;;;;;;;9.00;1.98;;;;;;;;;;4989187;28;20030;-67
2022/07/27 04:55:13;;;;;;;4.22;1.90;;;;;;;;;;4987265;28;20247;-66
2022/07/27 04:57:41;;;;;;;28.25;3.95;;;;;;;;;;4988409;28;20073;-66
2022/07/27 05:00:07;;;;;;;10.35;2.85;;;;;;;;;;4987086;28;20030;-66
2022/07/27 05:02:32;;;;;;;64.57;6.57;;;;;;;;;;4987923;28;20439;-66
2022/07/27 05:04:58;;;;;;;25.07;5.63;;;;;;;;;;4987335;28;20034;-66
2022/07/27 05:07:23;;;;;;;10.63;2.55;;;;;;;;;;4983686;28;20782;-66
2022/07/27 05:09:49;;;;;;;11.90;2.47;;;;;;;;;;4986826;28;20062;-67
2022/07/27 05:12:14;;;;;;;9.30;2.13;;;;;;;;;;4986568;28;20026;-67
2022/07/27 05:14:39;;;;;;;8.33;2.47;;;;;;;;;;4988584;28;20027;-66
2022/07/27 05:17:04;;;;;;;32.75;3.35;;;;;;;;;;4986621;28;20808;-66
2022/07/27 05:19:30;;;;;;;20.83;3.30;;;;;;;;;;4987742;28;20033;-66
2022/07/27 05:21:55;;;;;;;42.08;5.57;;;;;;;;;;4986972;28;20022;-67
2022/07/27 05:24:21;;;;;;;40.23;3.30;;;;;;;;;;4988090;28;20491;-66
2022/07/27 05:26:46;;;;;;;55.97;5.57;;;;;;;;;;4986334;28;20327;-66
2022/07/27 05:29:11;;;;;;;67.37;6.37;;;;;;;;;;4988470;28;20400;-66
2022/07/27 05:31:36;;;;;;;13.85;3.42;;;;;;;;;;4987712;28;20280;-66
2022/07/27 05:34:01;;;;;;;20.00;3.07;;;;;;;;;;4985042;28;20014;-67
2022/07/27 05:36:26;;;;;;;14.90;3.33;;;;;;;;;;4988200;28;20335;-66
2022/07/27 05:38:52;;;;;;;11.95;2.83;;;;;;;;;;4988269;28;20848;-67
2022/07/27 05:41:21;;;;;;;16.55;3.85;;;;;;;;;;4986523;28;20022;-67
2022/07/27 05:43:46;;;;;;;10.20;3.05;;;;;;;;;;4985122;28;20033;-66
2022/07/27 05:46:11;;;;;;;6.40;2.20;;;;;;;;;;4987121;28;20038;-66
2022/07/27 05:48:37;;;;;;;12.95;2.67;;;;;;;;;;4988012;28;20337;-66
2022/07/27 05:51:02;;;;;;;8.23;2.20;;;;;;;;;;4978874;28;20116;-64
2022/07/27 05:53:27;;;;;;;7.38;2.85;;;;;;;;;;4987930;28;20788;-65
2022/07/27 05:55:52;;;;;;;11.53;2.73;;;;;;;;;;4987932;28;20443;-66
2022/07/27 05:58:17;;;;;;;10.90;2.30;;;;;;;;;;4988538;28;20281;-66
2022/07/27 06:00:43;;;;;;;7.83;2.30;;;;;;;;;;4986910;28;20062;-64
2022/07/27 06:03:08;;;;;;;14.35;2.80;;;;;;;;;;4984556;28;20269;-65
2022/07/27 06:05:33;;;;;;;11.70;2.22;;;;;;;;;;4989450;28;20438;-64
2022/07/27 06:07:58;;;;;;;17.30;2.85;;;;;;;;;;4988495;28;20541;-66
2022/07/27 06:10:24;;;;;;;10.32;3.05;;;;;;;;;;4987230;28;20471;-64
2022/07/27 06:12:50;;;;;;;17.48;3.22;;;;;;;;;;4986079;28;20018;-68
2022/07/27 06:15:16;;;;;;;6.45;2.30;;;;;;;;;;4993414;28;20025;-65
2022/07/27 06:17:41;;;;;;;9.65;2.05;;;;;;;;;;4987524;28;20049;-66
2022/07/27 06:20:07;;;;;;;9.75;2.28;;;;;;;;;;4988515;28;20019;-65
2022/07/27 06:22:32;;;;;;;8.20;2.25;;;;;;;;;;4988182;28;20415;-64
2022/07/27 06:24:57;;;;;;;11.45;2.60;;;;;;;;;;4986857;28;20034;-64
2022/07/27 06:27:22;;;;;;;11.40;2.30;;;;;;;;;;4987314;28;20026;-64
2022/07/27 06:29:48;;;;;;;8.17;2.87;;;;;;;;;;4986746;28;20037;-64
2022/07/27 06:32:13;;;;;;;11.52;1.90;;;;;;;;;;4987912;28;20261;-64
2022/07/27 06:34:39;;;;;;;5.85;2.00;;;;;;;;;;4988737;28;20052;-65
2022/07/27 06:37:04;;;;;;;6.37;2.10;;;;;;;;;;4985786;28;20097;-65
2022/07/27 06:39:30;;;;;;;8.70;1.53;;;;;;;;;;4989950;28;20773;-65
2022/07/27 06:41:55;;;;;;;9.02;1.90;;;;;;;;;;4989295;28;20319;-65
2022/07/27 06:44:20;;;;;;;14.18;1.88;;;;;;;;;;4987820;28;20038;-65
2022/07/27 06:46:46;;;;;;;7.07;1.92;;;;;;;;;;4987058;28;20026;-65
2022/07/27 06:49:11;;;;;;;11.77;2.03;;;;;;;;;;4989710;28;20026;-65
2022/07/27 06:51:37;;;;;;;5.25;1.88;;;;;;;;;;4988869;28;20023;-65
2022/07/27 06:54:03;;;;;;;6.28;2.20;;;;;;;;;;4986834;28;20029;-65
2022/07/27 06:56:29;;;;;;;14.52;2.15;;;;;;;;;;4986289;28;20022;-64
2022/07/27 06:58:54;;;;;;;8.30;1.77;;;;;;;;;;4987625;28;20443;-65
2022/07/27 07:01:19;;;;;;;4.13;1.47;;;;;;;;;;4987075;28;20034;-65
2022/07/27 07:03:44;;;;;;;6.07;1.50;;;;;;;;;;4989373;28;20833;-65
2022/07/27 07:06:09;;;;;;;12.30;2.63;;;;;;;;;;4992949;28;20270;-65
2022/07/27 07:08:34;;;;;;;7.17;2.53;;;;;;;;;;4994640;28;20304;-65
2022/07/27 07:11:00;;;;;;;7.17;2.07;;;;;;;;;;4994105;28;20290;-65
2022/07/27 07:13:26;;;;;;;5.65;1.48;;;;;;;;;;4993116;28;20297;-65
2022/07/27 07:15:51;;;;;;;9.13;1.38;;;;;;;;;;4991677;28;20371;-65
2022/07/27 07:18:16;;;;;;;3.58;1.80;;;;;;;;;;4991917;28;20018;-65
2022/07/27 07:20:41;;;;;;;7.93;3.08;;;;;;;;;;4992590;28;20026;-65
2022/07/27 07:23:08;;;;;;;10.82;2.67;;;;;;;;;;4992586;28;20391;-65
2022/07/27 07:25:34;;;;;;;33.60;3.67;;;;;;;;;;4994160;28;20015;-65
2022/07/27 07:27:59;;;;;;;223.50;21.75;;;;;;;;;;4991685;28;20022;-65
2022/07/27 07:30:24;;;;;;;101.83;12.53;;;;;;;;;;4994104;28;20106;-65
2022/07/27 07:32:50;;;;;;;21.83;2.80;;;;;;;;;;4993190;28;20280;-65
2022/07/27 07:35:15;;;;;;;3.95;1.30;;;;;;;;;;4994268;28;20022;-65
2022/07/27 07:37:41;;;;;;;4.15;1.00;;;;;;;;;;4991533;28;20014;-65
2022/07/27 07:40:06;;;;;;;7.27;0.90;;;;;;;;;;4990302;28;20018;-65
2022/07/27 07:42:31;;;;;;;6.20;0.95;;;;;;;;;;4992203;28;20285;-65
2022/07/27 07:44:56;;;;;;;7.10;0.60;;;;;;;;;;4991817;28;20601;-66
2022/07/27 07:47:22;;;;;;;7.20;1.10;;;;;;;;;;4991077;28;20037;-66
2022/07/27 07:49:48;;;;;;;;;;;;;;;;;;4993953;28;20623;-66
2022/07/27 07:52:13;;;;;;;9.73;1.40;;;;;;;;;;4992172;28;19909;-66
2022/07/27 07:54:38;;;;;;;5.43;1.27;;;;;;;;;;4993038;28;20105;-66
2022/07/27 07:57:03;;;;;;;6.10;1.00;;;;;;;;;;4990973;28;20403;-66
2022/07/27 07:59:28;;;;;;;2.80;1.00;;;;;;;;;;4992991;28;20061;-66
2022/07/27 08:01:54;;;;;;;7.63;1.30;;;;;;;;;;4992928;28;20372;-66
2022/07/27 08:04:19;;;;;;;6.63;1.00;;;;;;;;;;4993321;28;20026;-66
2022/07/27 08:06:44;;;;;;;4.90;1.03;;;;;;;;;;4992248;28;20125;-66
2022/07/27 08:09:11;;;;;;;3.88;0.93;;;;;;;;;;4992802;28;20709;-66
2022/07/27 08:11:37;;;;;;;6.97;1.08;;;;;;;;;;4991971;28;20109;-66
2022/07/27 08:14:02;;;;;;;9.73;1.20;;;;;;;;;;4992968;28;20125;-65
2022/07/27 08:16:28;;;;;;;5.45;1.00;;;;;;;;;;4990549;28;20018;-66
2022/07/27 08:18:53;;;;;;;6.20;1.20;;;;;;;;;;4989226;28;20471;-66
2022/07/27 08:21:18;;;;;;;2.97;0.80;;;;;;;;;;4990990;28;20026;-65
2022/07/27 08:23:43;;;;;;;5.50;0.90;;;;;;;;;;4991706;28;20120;-65
2022/07/27 08:26:08;;;;;;;2.63;0.80;;;;;;;;;;4987723;28;20037;-65
2022/07/27 08:28:34;;;;;;;3.27;0.80;;;;;;;;;;4993714;28;20061;-65
2022/07/27 08:30:59;;;;;;;6.87;0.90;;;;;;;;;;4991268;28;20315;-65
2022/07/27 08:33:24;;;;;;;4.57;0.90;;;;;;;;;;4992351;28;20281;-65
2022/07/27 08:35:49;;;;;;;4.45;1.00;;;;;;;;;;4993187;28;20018;-65
2022/07/27 08:38:15;;;;;;;7.77;0.93;;;;;;;;;;4989766;28;20030;-65
2022/07/27 08:40:40;;;;;;;3.60;0.80;;;;;;;;;;4989710;28;20270;-65
2022/07/27 08:43:06;;;;;;;3.53;0.80;;;;;;;;;;4992510;28;20026;-65
2022/07/27 08:45:32;;;;;;;7.82;1.83;;;;;;;;;;4991255;28;20069;-65
2022/07/27 08:47:57;;;;;;;6.63;1.23;;;;;;;;;;4991626;28;20492;-65
2022/07/27 08:50:23;;;;;;;5.38;0.90;;;;;;;;;;4990856;28;20077;-65
2022/07/27 08:52:49;;;;;;;8.18;1.17;;;;;;;;;;4997382;28;20022;-65
2022/07/27 08:55:15;;;;;;;4.60;0.50;;;;;;;;;;4990526;28;20026;-65
2022/07/27 08:57:40;;;;;;;10.15;1.23;;;;;;;;;;4991824;28;20719;-65
2022/07/27 09:00:05;;;;;;;9.37;1.43;;;;;;;;;;4992517;28;20023;-65
2022/07/27 09:02:31;;;;;;;5.57;1.83;;;;;;;;;;4990584;28;20117;-65
2022/07/27 09:04:56;;;;;;;5.20;0.63;;;;;;;;;;4991002;28;21951;-65
2022/07/27 09:07:31;;;;;;;8.18;1.77;;;;;;;;;;4990865;28;20065;-65
2022/07/27 09:09:56;;;;;;;7.18;1.92;;;;;;;;;;4991452;28;20383;-64
2022/07/27 09:12:26;;;;;;;3.53;1.00;;;;;;;;;;4989905;28;20030;-65
2022/07/27 09:15:01;;;;;;;4.25;0.73;;;;;;;;;;4990011;28;20289;-65
2022/07/27 09:17:26;;;;;;;4.15;0.82;;;;;;;;;;4991408;28;20491;-65
2022/07/27 09:19:53;;;;;;;6.00;1.50;;;;;;;;;;4991604;28;20048;-65
2022/07/27 09:22:36;;;;;;;8.20;1.00;;;;;;;;;;4991790;28;20040;-64
2022/07/27 09:25:03;;;;;;;6.45;0.75;;;;;;;;;;4989219;28;20081;-67
2022/07/27 09:27:31;;;;;;;7.68;0.77;;;;;;;;;;4987630;28;21074;-65
2022/07/27 09:30:03;;;;;;;5.03;0.75;;;;;;;;;;4990175;28;20022;-66
2022/07/27 09:32:28;;;;;;;6.78;1.20;;;;;;;;;;4986955;28;20096;-64
2022/07/27 09:34:54;;;;;;;4.72;1.20;;;;;;;;;;4988533;28;20054;-66
2022/07/27 09:37:24;;;;;;;1.98;0.70;;;;;;;;;;4989290;28;20080;-64
2022/07/27 09:39:49;;;;;;;5.45;1.27;;;;;;;;;;4990187;28;20022;-64
2022/07/27 09:42:15;;;;;;;3.67;0.68;;;;;;;;;;4991329;28;20026;-67
2022/07/27 09:44:41;;;;;;;6.82;1.02;;;;;;;;;;4987362;28;20026;-65
2022/07/27 09:47:25;;;;;;;3.80;0.80;;;;;;;;;;4984654;28;20045;-66
2022/07/27 09:49:50;;;;;;;6.50;0.88;;;;;;;;;;4989395;28;20026;-67
2022/07/27 09:52:22;;;;;;;11.20;1.00;;;;;;;;;;4988979;28;20022;-65
2022/07/27 09:54:47;;;;;;;3.47;0.75;;;;;;;;;;4989336;28;20022;-64
2022/07/27 09:57:13;;;;;;;7.10;0.50;;;;;;;;;;4989432;28;20018;-64
2022/07/27 09:59:38;;;;;;;5.20;0.73;;;;;;;;;;4989037;28;20307;-64
2022/07/27 10:02:03;;;;;;;2.00;0.80;;;;;;;;;;4986721;28;20038;-65
2022/07/27 10:04:31;;;;;;;4.90;0.60;;;;;;;;;;4986540;28;20052;-67
2022/07/27 10:06:56;;;;;;;7.10;0.50;;;;;;;;;;4987941;28;20514;-66
2022/07/27 10:09:22;;;;;;;6.53;1.10;;;;;;;;;;4989542;28;20065;-64
2022/07/27 10:11:48;;;;;;;5.80;0.80;;;;;;;;;;4988635;28;20068;-65
2022/07/27 10:14:13;;;;;;;4.78;0.85;;;;;;;;;;4989236;28;20133;-66
2022/07/27 10:16:39;;;;;;;3.53;0.77;;;;;;;;;;4983694;28;20023;-67
2022/07/27 10:19:05;;;;;;;2.63;0.65;;;;;;;;;;4988746;28;20514;-66
2022/07/27 10:21:31;;;;;;;4.93;1.05;;;;;;;;;;4987861;28;20064;-64
2022/07/27 10:24:00;;;;;;;5.45;1.10;;;;;;;;;;5009097;23;20046;-70
2022/07/27 10:26:27;;;;;;;4.18;1.02;;;;;;;;;;4987140;28;20506;-71
2022/07/27 10:28:57;;;;;;;3.35;0.90;;;;;;;;;;4989295;28;20134;-70
2022/07/27 10:31:28;;;;;;;2.40;0.70;;;;;;;;;;4987467;28;20145;-71
2022/07/27 10:33:54;;;;;;;2.35;0.70;;;;;;;;;;4973627;28;20035;-71
2022/07/27 10:36:22;;;;;;;2.40;0.70;;;;;;;;;;4977417;28;20018;-68
2022/07/27 10:38:49;;;;;;;3.08;0.60;;;;;;;;;;4980123;28;20050;-68
2022/07/27 10:41:22;;;;;;;6.47;1.10;;;;;;;;;;4976927;28;20026;-70
2022/07/27 10:43:49;;;;;;;9.18;1.10;;;;;;;;;;4975384;28;20034;-69
2022/07/27 10:46:20;;;;;;;3.45;0.98;;;;;;;;;;4979570;28;20022;-70
2022/07/27 10:48:46;;;;;;;14.43;1.27;;;;;;;;;;4983007;28;20042;-70
2022/07/27 10:51:12;;;;;;;12.25;0.90;;;;;;;;;;4976076;28;20027;-69
2022/07/27 10:53:38;;;;;;;9.45;1.27;;;;;;;;;;4981616;28;20031;-67
2022/07/27 10:56:05;;;;;;;4.43;1.23;;;;;;;;;;4967653;28;20015;-71
2022/07/27 10:58:30;;;;;;;1.95;1.27;;;;;;;;;;4970699;28;20019;-71
2022/07/27 11:00:59;;;;;;;2.08;0.90;;;;;;;;;;4967226;28;20030;-70
2022/07/27 11:03:26;;;;;;;3.40;1.10;;;;;;;;;;4967674;28;20023;-70
2022/07/27 11:06:09;;;;;;;4.20;1.50;;;;;;;;;;4969987;28;20102;-70
2022/07/27 11:08:36;;;;;;;4.63;0.85;;;;;;;;;;4970095;28;20102;-70
2022/07/27 11:11:01;;;;;;;9.63;2.28;;;;;;;;;;4962849;28;20022;-69
2022/07/27 11:13:27;;;;;;;19.05;2.65;;;;;;;;;;4965692;28;20042;-70
2022/07/27 11:15:57;;;;;;;24.10;3.85;;;;;;;;;;4965576;28;20532;-71
2022/07/27 11:18:29;;;;;;;8.02;1.88;;;;;;;;;;4969003;28;20101;-71
2022/07/27 11:21:14;;;;;;;2.45;0.85;;;;;;;;;;4967298;28;20093;-71
2022/07/27 11:23:39;;;;;;;8.98;2.08;;;;;;;;;;4972768;28;20015;-66
2022/07/27 11:26:05;;;;;;;4.53;1.52;;;;;;;;;;4975213;28;20519;-70
2022/07/27 11:28:31;;;;;;;3.75;1.50;;;;;;;;;;4982227;28;20107;-68
2022/07/27 11:30:57;;;;;;;6.65;1.48;;;;;;;;;;4983297;28;20098;-67
2022/07/27 11:33:22;;;;;;;7.28;2.10;;;;;;;;;;4983701;28;20029;-68
2022/07/27 11:35:54;;;;;;;1.73;1.30;;;;;;;;;;4978260;28;20019;-70
2022/07/27 11:38:20;;;;;;;9.57;1.80;;;;;;;;;;4987503;28;20011;-68
2022/07/27 11:40:46;;;;;;;6.65;1.95;;;;;;;;;;4969614;28;20033;-70
2022/07/27 11:43:11;;;;;;;5.78;1.65;;;;;;;;;;4967479;28;20553;-70
2022/07/27 11:45:40;;;;;;;4.00;0.90;;;;;;;;;;4968646;28;20054;-69
2022/07/27 11:48:11;;;;;;;2.53;0.80;;;;;;;;;;4966773;28;20027;-71
2022/07/27 11:50:55;;;;;;;6.35;1.00;;;;;;;;;;4970431;28;20080;-70
2022/07/27 11:53:20;;;;;;;7.53;1.20;;;;;;;;;;4969919;28;20235;-70
2022/07/27 11:55:48;;;;;;;71.37;7.27;;;;;;;;;;4973031;28;20027;-70
2022/07/27 11:58:17;;;;;;;3.35;0.90;;;;;;;;;;4970230;28;20273;-68
2022/07/27 12:00:43;;;;;;;9.30;1.50;;;;;;;;;;4970206;28;20027;-67
2022/07/27 12:03:17;;;;;;;4.63;1.10;;;;;;;;;;4970819;28;20045;-70
2022/07/27 12:05:47;;;;;;;9.75;1.92;;;;;;;;;;4970408;28;20035;-70
2022/07/27 12:08:13;;;;;;;4.30;0.98;;;;;;;;;;4971534;28;20038;-70
2022/07/27 12:10:38;;;;;;;5.70;0.90;;;;;;;;;;4974215;28;20027;-71
2022/07/27 12:13:03;;;;;;;5.90;1.00;;;;;;;;;;4970703;28;20023;-68
2022/07/27 12:15:28;;;;;;;7.63;1.33;;;;;;;;;;4973092;28;20667;-71
2022/07/27 12:17:56;;;;;;;5.80;0.80;;;;;;;;;;4963471;28;20282;-70
2022/07/27 12:20:23;;;;;;;7.35;1.00;;;;;;;;;;4972260;28;20109;-70
2022/07/27 12:22:49;;;;;;;4.07;0.80;;;;;;;;;;4972970;28;20031;-71
2022/07/27 12:25:24;;;;;;;2.63;1.00;;;;;;;;;;4971542;28;20066;-70
2022/07/27 12:27:57;;;;;;;7.78;1.35;;;;;;;;;;4971786;28;20531;-71
2022/07/27 12:30:28;;;;;;;3.40;1.00;;;;;;;;;;4970511;28;20039;-71
2022/07/27 12:32:53;;;;;;;4.70;0.90;;;;;;;;;;4970500;28;20031;-70
2022/07/27 12:35:18;;;;;;;6.10;2.10;;;;;;;;;;4970954;28;20023;-69
2022/07/27 12:37:44;;;;;;;9.50;1.60;;;;;;;;;;4971803;28;20022;-71
2022/07/27 12:40:14;;;;;;;6.35;0.90;;;;;;;;;;4970811;28;20055;-70
2022/07/27 12:42:39;;;;;;;17.80;1.25;;;;;;;;;;4973050;28;20398;-69
2022/07/27 12:45:11;;;;;;;3.05;0.88;;;;;;;;;;4988833;28;20054;-68
2022/07/27 12:47:39;;;;;;;10.73;1.50;;;;;;;;;;4982268;28;20482;-69
2022/07/27 12:50:09;;;;;;;5.80;1.40;;;;;;;;;;4990648;28;20055;-69
2022/07/27 12:52:36;;;;;;;7.45;0.90;;;;;;;;;;4983575;28;20020;-71
2022/07/27 12:55:02;;;;;;;6.85;1.88;;;;;;;;;;4982703;28;20023;-69
2022/07/27 12:57:28;;;;;;;6.63;0.90;;;;;;;;;;4987020;28;20267;-68
2022/07/27 12:59:53;;;;;;;3.28;0.88;;;;;;;;;;4981782;28;20034;-67
2022/07/27 13:02:18;;;;;;;4.78;0.90;;;;;;;;;;4987062;28;20054;-68
2022/07/27 13:04:44;;;;;;;4.63;1.05;;;;;;;;;;4979269;28;20015;-71
2022/07/27 13:07:09;;;;;;;5.60;1.10;;;;;;;;;;4984887;28;20030;-69
2022/07/27 13:09:34;;;;;;;3.23;1.03;;;;;;;;;;4988257;28;20503;-68
2022/07/27 13:12:00;;;;;;;6.78;1.10;;;;;;;;;;4990353;28;20261;-68
2022/07/27 13:14:25;;;;;;;7.18;1.08;;;;;;;;;;4986602;28;20078;-71
2022/07/27 13:16:51;;;;;;;1.95;0.90;;;;;;;;;;4984560;28;20086;-68
2022/07/27 13:19:16;;;;;;;5.30;1.05;;;;;;;;;;4987412;28;20043;-69
2022/07/27 13:21:41;;;;;;;9.97;1.10;;;;;;;;;;4984272;28;20046;-69
2022/07/27 13:24:08;;;;;;;10.80;1.17;;;;;;;;;;4987412;28;20274;-70
2022/07/27 13:26:34;;;;;;;5.97;0.95;;;;;;;;;;4981910;28;20031;-66
2022/07/27 13:28:59;;;;;;;6.85;1.75;;;;;;;;;;4983956;28;20185;-71
2022/07/27 13:31:24;;;;;;;5.00;1.17;;;;;;;;;;4982814;28;20026;-69
2022/07/27 13:33:50;;;;;;;6.00;1.30;;;;;;;;;;4984315;28;20270;-71
2022/07/27 13:36:16;;;;;;;3.55;1.27;;;;;;;;;;4987606;28;20786;-71
2022/07/27 13:38:41;;;;;;;8.25;3.00;;;;;;;;;;4979736;28;20054;-71
2022/07/27 13:41:07;;;;;;;6.60;1.07;;;;;;;;;;4984475;28;20110;-68
2022/07/27 13:43:32;;;;;;;4.03;1.13;;;;;;;;;;4989610;28;20321;-70
2022/07/27 13:45:57;;;;;;;5.47;1.30;;;;;;;;;;4982491;28;20085;-66
2022/07/27 13:48:23;;;;;;;5.95;1.20;;;;;;;;;;4988019;28;20456;-67
2022/07/27 13:50:48;;;;;;;3.67;1.40;;;;;;;;;;4989203;28;20017;-69
2022/07/27 13:53:14;;;;;;;3.35;1.08;;;;;;;;;;4983748;28;20270;-67
2022/07/27 13:55:39;;;;;;;2.50;1.33;;;;;;;;;;4983291;28;20034;-67
2022/07/27 13:58:05;;;;;;;4.57;0.90;;;;;;;;;;4983830;28;20022;-67
2022/07/27 14:00:30;;;;;;;3.33;1.20;;;;;;;;;;4985696;28;20037;-69
2022/07/27 14:02:55;;;;;;;3.22;1.17;;;;;;;;;;4987944;28;20300;-68
2022/07/27 14:05:20;;;;;;;9.77;1.17;;;;;;;;;;4983914;28;20022;-67
2022/07/27 14:07:46;;;;;;;5.97;1.30;;;;;;;;;;4986320;28;20070;-69
2022/07/27 14:12:55;;;;;;;6.40;1.60;;;;;;;;;;4985129;28;20309;-69
2022/07/27 14:15:20;;;;;;;2.83;1.25;;;;;;;;;;4984884;28;20387;-68
2022/07/27 14:17:45;;;;;;;2.85;1.13;;;;;;;;;;4980263;28;20023;-66
2022/07/27 14:20:10;;;;;;;2.77;1.20;;;;;;;;;;4986700;28;20050;-69
2022/07/27 14:22:36;;;;;;;2.28;1.20;;;;;;;;;;4985632;28;21033;-70
2022/07/27 14:25:01;;;;;;;4.28;1.10;;;;;;;;;;4986262;28;20470;-69
2022/07/27 14:27:26;;;;;;;4.15;1.38;;;;;;;;;;4985221;28;20038;-68
2022/07/27 14:29:51;;;;;;;3.80;1.20;;;;;;;;;;4987326;28;20057;-69
2022/07/27 14:32:16;;;;;;;9.40;1.30;;;;;;;;;;4982315;28;20029;-71
2022/07/27 14:34:42;;;;;;;3.97;1.50;;;;;;;;;;4982771;28;20285;-69
2022/07/27 14:37:07;;;;;;;9.20;1.27;;;;;;;;;;4978805;28;20341;-71
2022/07/27 14:39:32;;;;;;;2.92;0.98;;;;;;;;;;4984966;28;20289;-69